Time;durP1;ratioP1;P1;durP2;ratioP2;P2;SDS_P1;SDS_P2;PMS_P1;PMS_P2;Temp;Humidity;BMP_temperature;BMP_pressure;BME280_temperature;BME280_humidity;BME280_pressure;Samples;Min_cycle;Max_cycle;Signal;HPM_P1;HPM_P2
2021/08/12 00:01:03;;;;;;;21.02;7.65;;;20.60;52.30;;;;;;4378067;32;20452;-69
2021/08/12 00:03:29;;;;;;;14.75;7.95;;;20.50;52.50;;;;;;4338714;32;20069;-70
2021/08/12 00:05:55;;;;;;;12.93;6.78;;;20.50;52.70;;;;;;4362914;32;20522;-71
2021/08/12 00:08:21;;;;;;;12.93;6.47;;;20.50;52.60;;;;;;4350360;32;20076;-70
2021/08/12 00:10:50;;;;;;;16.02;7.03;;;20.50;52.70;;;;;;4337519;32;20070;-70
2021/08/12 00:13:18;;;;;;;12.02;7.12;;;20.40;53.00;;;;;;4362335;32;20085;-70
2021/08/12 00:15:44;;;;;;;13.10;6.82;;;20.50;52.90;;;;;;4350383;32;20074;-70
2021/08/12 00:18:10;;;;;;;15.25;8.25;;;20.40;53.40;;;;;;4362592;32;20157;-69
2021/08/12 00:20:37;;;;;;;15.57;7.60;;;20.40;53.40;;;;;;4350038;32;20074;-71
2021/08/12 00:23:04;;;;;;;12.20;6.97;;;20.40;54.50;;;;;;4337941;32;20493;-69
2021/08/12 00:25:30;;;;;;;12.23;7.45;;;20.30;53.70;;;;;;4349986;32;20070;-70
2021/08/12 00:27:56;;;;;;;11.20;6.75;;;20.40;53.40;;;;;;4362597;32;20089;-69
2021/08/12 00:30:22;;;;;;;13.25;7.37;;;20.40;53.50;;;;;;4362836;32;20079;-69
2021/08/12 00:32:48;;;;;;;10.95;6.18;;;20.40;53.50;;;;;;4350227;32;20090;-70
2021/08/12 00:35:14;;;;;;;14.87;7.60;;;20.30;53.50;;;;;;4375956;32;20085;-71
2021/08/12 00:37:41;;;;;;;12.88;6.95;;;20.20;53.80;;;;;;4360944;32;20077;-70
2021/08/12 00:40:07;;;;;;;11.95;6.62;;;20.30;53.90;;;;;;4384781;32;20577;-70
2021/08/12 00:42:34;;;;;;;13.43;7.05;;;20.20;54.20;;;;;;4353177;32;20152;-70
2021/08/12 00:45:00;;;;;;;19.25;7.72;;;20.20;54.30;;;;;;4378824;32;20077;-69
2021/08/12 00:47:26;;;;;;;12.40;7.12;;;20.10;54.30;;;;;;4357443;32;20070;-70
2021/08/12 00:49:52;;;;;;;11.52;6.57;;;20.10;54.50;;;;;;4352432;32;20101;-70
2021/08/12 00:52:18;;;;;;;13.05;6.60;;;20.10;54.90;;;;;;4364594;32;20077;-70
2021/08/12 00:54:45;;;;;;;14.35;7.53;;;20.10;54.60;;;;;;4339888;32;20078;-70
2021/08/12 00:57:11;;;;;;;13.70;7.20;;;20.10;55.10;;;;;;4364636;32;20062;-70
2021/08/12 00:59:39;;;;;;;14.35;7.35;;;20.10;55.20;;;;;;4352866;32;20082;-70
2021/08/12 01:02:15;;;;;;;17.95;9.10;;;20.00;56.70;;;;;;4340538;32;20077;-70
2021/08/12 01:04:50;;;;;;;18.37;9.48;;;19.70;57.00;;;;;;4365025;32;20086;-69
2021/08/12 01:07:37;;;;;;;15.85;8.45;;;19.60;58.00;;;;;;4340487;32;20157;-70
2021/08/12 01:10:21;;;;;;;20.17;9.88;;;19.60;58.10;;;;;;4354535;32;20145;-70
2021/08/12 01:13:04;;;;;;;22.92;10.18;;;19.40;58.80;;;;;;4364913;32;20527;-70
2021/08/12 01:15:41;;;;;;;16.45;7.10;;;19.50;59.20;;;;;;4364910;32;20076;-69
2021/08/12 01:18:33;;;;;;;17.60;8.60;;;19.70;58.00;;;;;;4364543;32;20112;-71
2021/08/12 01:21:39;;;;;;;18.50;8.65;;;19.60;58.10;;;;;;4364559;32;20073;-69
2021/08/12 01:24:06;;;;;;;18.77;8.50;;;19.60;58.90;;;;;;4352950;32;20089;-70
2021/08/12 01:26:33;;;;;;;17.05;8.80;;;19.40;59.80;;;;;;4339874;32;20083;-70
2021/08/12 01:29:03;;;;;;;16.85;8.85;;;19.30;59.90;;;;;;4364539;32;20075;-70
2021/08/12 01:31:46;;;;;;;18.75;8.82;;;19.10;61.30;;;;;;4339866;32;20077;-70
2021/08/12 01:34:29;;;;;;;17.50;8.80;;;19.10;62.00;;;;;;4352191;32;20074;-70
2021/08/12 01:36:55;;;;;;;17.60;9.77;;;19.10;62.10;;;;;;4354169;32;20142;-69
2021/08/12 01:39:22;;;;;;;16.45;8.65;;;19.10;62.30;;;;;;4352076;32;20074;-69
2021/08/12 01:41:48;;;;;;;16.95;9.15;;;19.20;61.90;;;;;;4336408;32;20171;-70
2021/08/12 01:44:15;;;;;;;19.90;9.30;;;19.20;62.20;;;;;;4324966;32;20154;-70
2021/08/12 01:46:45;;;;;;;19.62;9.10;;;19.20;61.90;;;;;;4349088;32;20195;-70
2021/08/12 01:49:12;;;;;;;21.20;10.77;;;19.30;61.10;;;;;;4338059;32;20088;-70
2021/08/12 01:51:38;;;;;;;21.90;10.95;;;19.20;61.80;;;;;;4361867;32;20086;-70
2021/08/12 01:54:05;;;;;;;20.75;11.60;;;19.10;62.30;;;;;;4349284;32;20075;-71
2021/08/12 01:56:31;;;;;;;20.17;10.75;;;19.20;62.40;;;;;;4348933;32;20082;-70
2021/08/12 01:58:59;;;;;;;20.23;10.30;;;19.10;62.50;;;;;;4348738;32;20105;-70
2021/08/12 02:01:26;;;;;;;13.35;8.18;;;19.30;62.00;;;;;;4336620;32;20497;-70
2021/08/12 02:03:52;;;;;;;18.17;9.18;;;19.40;61.10;;;;;;4337215;32;20094;-70
2021/08/12 02:06:19;;;;;;;19.48;8.77;;;19.30;61.40;;;;;;4348684;32;20083;-70
2021/08/12 02:08:45;;;;;;;14.60;8.40;;;19.50;60.70;;;;;;4337694;32;20070;-70
2021/08/12 02:11:12;;;;;;;12.15;7.07;;;19.40;61.30;;;;;;4349761;32;20078;-70
2021/08/12 02:13:38;;;;;;;14.68;7.87;;;19.30;61.30;;;;;;4324828;32;20085;-70
2021/08/12 02:16:09;;;;;;;13.52;7.95;;;19.30;62.00;;;;;;4361253;32;20097;-70
2021/08/12 02:18:41;;;;;;;15.60;7.37;;;19.30;62.30;;;;;;4325163;32;20104;-70
2021/08/12 02:21:12;;;;;;;12.82;7.60;;;19.40;61.80;;;;;;4337152;32;20065;-70
2021/08/12 02:23:43;;;;;;;20.75;8.38;;;19.50;61.30;;;;;;4336787;32;20079;-70
2021/08/12 02:26:19;;;;;;;12.90;7.30;;;19.40;61.60;;;;;;4336731;32;20090;-70
2021/08/12 02:28:47;;;;;;;13.85;8.07;;;19.60;61.20;;;;;;4336704;32;20181;-70
2021/08/12 02:31:16;;;;;;;14.27;7.55;;;19.60;61.20;;;;;;4336480;32;20074;-70
2021/08/12 02:33:43;;;;;;;15.85;7.55;;;19.50;62.40;;;;;;4336290;32;20535;-70
2021/08/12 02:36:10;;;;;;;14.02;7.18;;;19.60;61.90;;;;;;4336318;32;20535;-70
2021/08/12 02:38:38;;;;;;;11.23;7.07;;;19.50;61.80;;;;;;4335882;32;20081;-70
2021/08/12 02:41:05;;;;;;;12.98;7.22;;;19.60;61.80;;;;;;4336631;32;20090;-70
2021/08/12 02:43:35;;;;;;;12.37;7.00;;;19.70;61.30;;;;;;4348879;32;20075;-69
2021/08/12 02:46:01;;;;;;;14.43;7.37;;;19.80;61.50;;;;;;4349113;32;20067;-70
2021/08/12 02:48:28;;;;;;;15.65;7.57;;;19.70;61.20;;;;;;4337084;32;20097;-70
2021/08/12 02:50:55;;;;;;;13.88;6.93;;;19.80;61.10;;;;;;4338108;32;20076;-70
2021/08/12 02:53:21;;;;;;;11.68;6.60;;;19.70;61.50;;;;;;4349616;32;20101;-72
2021/08/12 02:55:47;;;;;;;14.77;6.97;;;19.70;62.10;;;;;;4336098;32;20093;-70
2021/08/12 02:58:14;;;;;;;13.27;7.32;;;19.80;61.40;;;;;;4348531;32;20082;-70
2021/08/12 03:00:40;;;;;;;14.13;6.68;;;19.70;61.80;;;;;;4324126;32;20080;-70
2021/08/12 03:03:06;;;;;;;12.50;7.47;;;19.70;61.80;;;;;;4336191;32;20085;-71
2021/08/12 03:05:34;;;;;;;16.20;8.07;;;19.80;61.80;;;;;;4347948;32;20098;-70
2021/08/12 03:08:01;;;;;;;14.93;7.20;;;19.90;61.50;;;;;;4323385;32;20519;-70
2021/08/12 03:10:28;;;;;;;13.70;6.85;;;20.00;61.20;;;;;;4336123;32;20162;-70
2021/08/12 03:12:55;;;;;;;15.30;7.45;;;20.10;60.80;;;;;;4335665;32;20228;-71
2021/08/12 03:15:21;;;;;;;16.52;7.80;;;20.20;60.00;;;;;;4348674;32;20078;-70
2021/08/12 03:17:47;;;;;;;15.05;7.55;;;20.20;60.80;;;;;;4312192;32;20083;-70
2021/08/12 03:20:13;;;;;;;13.15;7.07;;;20.20;59.90;;;;;;4348387;32;20097;-70
2021/08/12 03:22:43;;;;;;;12.20;6.85;;;20.20;61.30;;;;;;4323293;32;20090;-70
2021/08/12 03:25:10;;;;;;;14.10;6.82;;;20.20;60.70;;;;;;4311734;32;20101;-70
2021/08/12 03:27:36;;;;;;;12.15;7.37;;;20.20;60.50;;;;;;4347773;32;20069;-70
2021/08/12 03:30:02;;;;;;;13.62;6.87;;;20.30;60.20;;;;;;4360249;32;20539;-70
2021/08/12 03:32:28;;;;;;;15.93;7.03;;;20.30;60.20;;;;;;4347979;32;20101;-70
2021/08/12 03:34:55;;;;;;;12.43;6.95;;;20.50;59.80;;;;;;4335246;32;20160;-70
2021/08/12 03:37:21;;;;;;;15.35;7.20;;;20.60;59.40;;;;;;4335463;32;20150;-70
2021/08/12 03:39:47;;;;;;;12.25;6.85;;;20.60;59.30;;;;;;4360332;32;20078;-70
2021/08/12 03:42:13;;;;;;;14.52;6.90;;;20.70;59.50;;;;;;4347669;32;20162;-70
2021/08/12 03:44:39;;;;;;;12.95;7.12;;;20.60;59.30;;;;;;4360055;32;20086;-69
2021/08/12 03:47:06;;;;;;;15.70;6.90;;;20.70;59.40;;;;;;4360296;32;20071;-70
2021/08/12 03:49:33;;;;;;;12.20;6.95;;;20.70;58.90;;;;;;4336436;32;20074;-69
2021/08/12 03:51:59;;;;;;;12.95;6.97;;;20.90;58.50;;;;;;4360550;32;20506;-70
2021/08/12 03:54:25;;;;;;;14.38;7.25;;;21.00;58.20;;;;;;4347653;32;20066;-69
2021/08/12 03:56:51;;;;;;;14.27;7.28;;;20.80;58.70;;;;;;4359917;32;20614;-70
2021/08/12 03:59:18;;;;;;;10.35;6.62;;;20.90;57.90;;;;;;4334962;32;20094;-71
2021/08/12 04:01:44;;;;;;;14.10;7.35;;;21.00;57.70;;;;;;4360904;32;20079;-70
2021/08/12 04:04:10;;;;;;;10.55;6.12;;;21.20;57.20;;;;;;4359968;32;20098;-71
2021/08/12 04:06:37;;;;;;;13.20;7.40;;;21.30;56.70;;;;;;4335521;32;20081;-70
2021/08/12 04:09:03;;;;;;;13.40;8.00;;;21.30;56.40;;;;;;4361222;32;20150;-70
2021/08/12 04:11:29;;;;;;;12.63;7.15;;;21.20;56.60;;;;;;4359895;32;20075;-70
2021/08/12 04:13:55;;;;;;;15.68;7.90;;;21.30;56.90;;;;;;4334874;32;20175;-70
2021/08/12 04:16:21;;;;;;;14.98;7.75;;;21.30;56.70;;;;;;4360548;32;20090;-70
2021/08/12 04:18:48;;;;;;;16.25;7.43;;;21.10;56.80;;;;;;4361131;32;20066;-70
2021/08/12 04:21:14;;;;;;;11.70;6.22;;;21.30;56.60;;;;;;4338285;32;20101;-70
2021/08/12 04:23:40;;;;;;;13.23;7.55;;;21.60;55.80;;;;;;4351002;32;20180;-70
2021/08/12 04:26:06;;;;;;;17.12;8.07;;;21.80;54.70;;;;;;4338550;32;20070;-70
2021/08/12 04:28:33;;;;;;;14.85;7.50;;;21.70;55.30;;;;;;4350509;32;20086;-70
2021/08/12 04:30:59;;;;;;;13.77;7.57;;;21.60;55.80;;;;;;4350771;32;20102;-69
2021/08/12 04:33:26;;;;;;;11.73;7.03;;;21.70;55.00;;;;;;4362578;32;20155;-70
2021/08/12 04:35:52;;;;;;;13.70;7.40;;;21.60;55.40;;;;;;4337738;32;20149;-70
2021/08/12 04:38:18;;;;;;;16.30;7.95;;;21.60;55.80;;;;;;4337858;32;20150;-70
2021/08/12 04:40:44;;;;;;;15.27;7.78;;;21.80;55.50;;;;;;4350320;32;20070;-69
2021/08/12 04:43:10;;;;;;;14.77;7.97;;;22.00;54.30;;;;;;4373236;32;20513;-70
2021/08/12 04:45:37;;;;;;;12.82;7.05;;;22.10;54.50;;;;;;4340169;32;20094;-69
2021/08/12 04:48:04;;;;;;;13.73;7.30;;;22.90;52.20;;;;;;4352445;32;20516;-70
2021/08/12 04:50:31;;;;;;;15.52;7.85;;;25.60;43.30;;;;;;4341017;32;20155;-70
2021/08/12 04:52:57;;;;;;;14.48;7.35;;;26.50;39.80;;;;;;4352412;32;20166;-69
2021/08/12 04:55:23;;;;;;;13.05;6.80;;;26.30;39.00;;;;;;4316841;32;20085;-70
2021/08/12 04:57:50;;;;;;;15.27;7.78;;;26.50;39.10;;;;;;4379702;32;20509;-70
2021/08/12 05:00:16;;;;;;;15.10;7.05;;;25.70;40.20;;;;;;4340203;32;20095;-70
2021/08/12 05:02:43;;;;;;;12.70;7.87;;;25.80;40.20;;;;;;4340101;32;20169;-70
2021/08/12 05:05:10;;;;;;;13.62;7.32;;;26.20;39.80;;;;;;4352337;32;20491;-71
2021/08/12 05:07:36;;;;;;;15.15;7.60;;;26.50;38.20;;;;;;4364725;32;20097;-69
2021/08/12 05:10:02;;;;;;;14.38;7.75;;;26.50;40.00;;;;;;4378288;32;20093;-70
2021/08/12 05:12:29;;;;;;;15.15;7.95;;;26.50;39.10;;;;;;4339946;32;20243;-69
2021/08/12 05:14:57;;;;;;;13.48;7.53;;;26.90;38.40;;;;;;4351801;32;20540;-71
2021/08/12 05:17:23;;;;;;;14.60;7.12;;;26.50;39.50;;;;;;4352363;32;20179;-70
2021/08/12 05:19:49;;;;;;;10.70;6.93;;;27.00;39.20;;;;;;4364315;32;20078;-70
2021/08/12 05:22:22;;;;;;;13.52;7.25;;;27.20;36.50;;;;;;4364293;32;20190;-70
2021/08/12 05:24:48;;;;;;;12.02;7.45;;;26.80;38.10;;;;;;4327896;32;20513;-70
2021/08/12 05:27:14;;;;;;;12.57;6.87;;;27.80;36.70;;;;;;4364448;32;20074;-70
2021/08/12 05:29:41;;;;;;;14.10;6.97;;;26.70;38.40;;;;;;4352276;32;20175;-70
2021/08/12 05:32:07;;;;;;;16.92;8.50;;;27.30;36.90;;;;;;4378673;32;20082;-70
2021/08/12 05:34:33;;;;;;;11.40;7.53;;;26.80;38.90;;;;;;4364542;32;20066;-70
2021/08/12 05:36:59;;;;;;;16.05;7.72;;;27.10;37.50;;;;;;4352183;32;20152;-70
2021/08/12 05:37:00;;;;;;;;;;;27.10;37.50;;;;;;4352184;32;1192668;-72
2021/08/12 05:39:27;;;;;;;17.67;8.07;;;27.90;35.80;;;;;;4298406;33;20371;-69
2021/08/12 05:41:53;;;;;;;12.73;7.43;;;28.70;34.40;;;;;;4275274;33;20091;-69
2021/08/12 05:44:19;;;;;;;15.18;7.30;;;28.10;34.10;;;;;;4276776;33;20080;-70
2021/08/12 05:46:46;;;;;;;12.23;6.43;;;28.10;34.50;;;;;;4264268;33;20141;-70
2021/08/12 05:49:12;;;;;;;12.43;7.50;;;27.80;36.10;;;;;;4276081;33;20069;-68
2021/08/12 05:51:38;;;;;;;17.08;8.07;;;29.00;33.20;;;;;;4263780;33;20583;-68
2021/08/12 05:54:08;;;;;;;13.55;7.85;;;28.90;32.70;;;;;;4264594;33;20100;-70
2021/08/12 05:56:37;;;;;;;15.32;6.70;;;27.30;36.90;;;;;;4264285;33;20155;-69
2021/08/12 05:59:03;;;;;;;12.75;7.37;;;27.70;35.90;;;;;;4276547;33;20503;-69
2021/08/12 06:01:29;;;;;;;13.95;7.05;;;28.30;35.50;;;;;;4276604;33;20065;-70
2021/08/12 06:03:55;;;;;;;17.17;7.75;;;27.40;35.30;;;;;;4264664;33;20174;-69
2021/08/12 06:06:21;;;;;;;15.98;8.70;;;27.20;37.40;;;;;;4276187;33;20071;-70
2021/08/12 06:08:48;;;;;;;14.50;8.15;;;28.00;36.30;;;;;;4263875;33;20076;-69
2021/08/12 06:11:14;;;;;;;15.63;8.02;;;29.00;34.00;;;;;;4275936;33;20463;-71
2021/08/12 06:13:40;;;;;;;14.43;7.07;;;29.00;33.20;;;;;;4264471;33;20092;-70
2021/08/12 06:16:07;;;;;;;16.83;8.38;;;28.10;36.30;;;;;;4264039;33;20076;-70
2021/08/12 06:18:33;;;;;;;15.65;7.22;;;28.80;32.90;;;;;;4275521;33;20090;-68
2021/08/12 06:20:59;;;;;;;18.12;10.88;;;29.50;32.60;;;;;;4263603;33;20088;-69
2021/08/12 06:23:26;;;;;;;14.43;8.40;;;30.00;30.90;;;;;;4293855;33;20143;-70
2021/08/12 06:25:52;;;;;;;15.57;7.93;;;29.90;30.30;;;;;;4289583;33;20091;-69
2021/08/12 06:28:18;;;;;;;13.23;7.85;;;27.20;34.60;;;;;;4287895;33;20100;-69
2021/08/12 06:30:44;;;;;;;17.02;8.02;;;26.60;39.70;;;;;;4301924;33;20123;-69
2021/08/12 06:33:10;;;;;;;16.85;8.35;;;25.90;41.40;;;;;;4289011;33;20523;-69
2021/08/12 06:35:37;;;;;;;19.70;7.68;;;26.20;41.40;;;;;;4302194;33;20148;-70
2021/08/12 06:38:04;;;;;;;13.00;7.75;;;26.50;41.30;;;;;;4278793;33;20090;-70
2021/08/12 06:40:31;;;;;;;17.35;7.62;;;27.20;39.50;;;;;;4278126;33;20117;-70
2021/08/12 06:42:57;;;;;;;14.45;7.78;;;26.70;39.90;;;;;;4277217;33;20539;-71
2021/08/12 06:45:26;;;;;;;11.88;6.78;;;26.30;41.60;;;;;;4301961;33;20084;-68
2021/08/12 06:47:53;;;;;;;14.75;8.05;;;26.30;41.50;;;;;;4278487;33;20087;-67
2021/08/12 06:50:21;;;;;;;16.85;8.85;;;26.90;40.00;;;;;;4290020;33;20155;-66
2021/08/12 06:52:47;;;;;;;16.62;8.02;;;26.60;40.70;;;;;;4278120;33;20097;-66
2021/08/12 06:55:13;;;;;;;15.75;9.45;;;26.30;41.10;;;;;;4290042;33;20150;-68
2021/08/12 06:57:40;;;;;;;17.62;7.80;;;27.10;39.50;;;;;;4295539;33;20175;-66
2021/08/12 07:00:07;;;;;;;15.20;8.63;;;27.30;39.30;;;;;;4275384;33;20110;-67
2021/08/12 07:02:33;;;;;;;13.77;8.15;;;27.30;38.40;;;;;;4284745;33;20139;-69
2021/08/12 07:04:59;;;;;;;14.60;7.93;;;27.40;38.70;;;;;;4282502;33;20066;-70
2021/08/12 07:07:25;;;;;;;14.98;7.87;;;26.20;40.60;;;;;;4300603;33;20103;-69
2021/08/12 07:09:52;;;;;;;15.80;7.70;;;26.60;41.10;;;;;;4285100;33;20114;-68
2021/08/12 07:12:19;;;;;;;16.20;8.70;;;27.00;39.30;;;;;;4296893;33;20135;-69
2021/08/12 07:14:46;;;;;;;18.20;8.57;;;27.10;39.00;;;;;;4277538;33;20656;-69
2021/08/12 07:17:13;;;;;;;18.67;8.90;;;26.70;40.30;;;;;;4278489;33;20522;-70
2021/08/12 07:19:39;;;;;;;15.68;9.45;;;27.20;39.40;;;;;;4262170;33;20088;-66
2021/08/12 07:22:05;;;;;;;13.23;8.20;;;27.90;37.70;;;;;;4300701;33;20095;-69
2021/08/12 07:24:32;;;;;;;15.98;8.80;;;26.80;38.70;;;;;;4287811;33;20199;-68
2021/08/12 07:26:58;;;;;;;20.02;9.38;;;26.70;40.30;;;;;;4288947;33;20091;-70
2021/08/12 07:29:24;;;;;;;16.60;8.60;;;27.60;38.60;;;;;;4289628;33;20123;-70
2021/08/12 07:31:51;;;;;;;15.18;7.80;;;27.70;38.20;;;;;;4278609;33;20075;-67
2021/08/12 07:34:17;;;;;;;17.35;8.80;;;26.40;39.20;;;;;;4286082;33;20084;-65
2021/08/12 07:36:46;;;;;;;16.87;8.88;;;26.70;40.10;;;;;;4275920;33;20091;-68
2021/08/12 07:39:13;;;;;;;16.95;8.43;;;27.30;38.90;;;;;;4288709;33;20115;-70
2021/08/12 07:41:39;;;;;;;14.45;8.07;;;27.10;39.00;;;;;;4286906;33;20111;-69
2021/08/12 07:44:05;;;;;;;15.27;8.63;;;27.20;38.50;;;;;;4289619;33;20126;-73
2021/08/12 07:46:32;;;;;;;19.83;9.15;;;27.80;37.90;;;;;;4287687;33;20075;-70
2021/08/12 07:48:58;;;;;;;17.50;9.13;;;26.90;38.00;;;;;;4263694;33;20167;-65
2021/08/12 07:51:24;;;;;;;15.65;8.38;;;27.40;38.50;;;;;;4287955;33;20087;-68
2021/08/12 07:53:51;;;;;;;15.10;8.52;;;28.40;37.10;;;;;;4276815;33;20070;-67
2021/08/12 07:56:18;;;;;;;17.58;9.50;;;28.90;35.90;;;;;;4287148;33;20083;-65
2021/08/12 07:58:44;;;;;;;15.98;9.05;;;28.70;35.10;;;;;;4285722;33;20495;-67
2021/08/12 08:01:10;;;;;;;15.68;8.68;;;28.60;35.80;;;;;;4273675;33;20124;-70
2021/08/12 08:03:36;;;;;;;19.25;9.30;;;28.70;35.60;;;;;;4275323;33;20151;-67
2021/08/12 08:06:02;;;;;;;17.52;8.82;;;28.70;35.50;;;;;;4276316;33;20072;-68
2021/08/12 08:08:29;;;;;;;17.37;9.32;;;28.60;35.80;;;;;;4284377;33;20175;-67
2021/08/12 08:10:55;;;;;;;18.45;9.63;;;28.50;36.70;;;;;;4275167;33;20073;-71
2021/08/12 08:13:21;;;;;;;17.05;9.18;;;28.50;36.70;;;;;;4287565;33;20095;-71
2021/08/12 08:15:47;;;;;;;18.87;10.50;;;28.80;36.40;;;;;;4287411;33;20079;-67
2021/08/12 08:18:14;;;;;;;19.12;9.32;;;28.50;35.80;;;;;;4287633;33;20061;-71
2021/08/12 08:20:40;;;;;;;18.12;8.52;;;28.00;37.20;;;;;;4302440;33;20144;-68
2021/08/12 08:23:10;;;;;;;15.38;8.35;;;28.30;36.80;;;;;;4279476;33;20076;-66
2021/08/12 08:25:37;;;;;;;16.83;8.80;;;28.80;35.60;;;;;;4277567;33;20115;-71
2021/08/12 08:28:04;;;;;;;19.12;9.73;;;28.70;35.60;;;;;;4275717;33;20083;-66
2021/08/12 08:30:33;;;;;;;15.90;8.27;;;28.60;35.50;;;;;;4276084;33;20077;-65
2021/08/12 08:32:59;;;;;;;17.48;9.25;;;29.40;35.00;;;;;;4287438;33;20064;-68
2021/08/12 08:35:26;;;;;;;17.65;9.63;;;29.30;34.30;;;;;;4286646;33;20096;-73
2021/08/12 08:37:53;;;;;;;20.85;8.85;;;29.30;34.30;;;;;;4288116;33;20075;-72
2021/08/12 08:40:20;;;;;;;17.37;9.05;;;28.70;35.30;;;;;;4252874;33;20116;-71
2021/08/12 08:42:46;;;;;;;17.83;9.40;;;28.90;35.50;;;;;;4299673;33;20103;-70
2021/08/12 08:45:27;;;;;;;18.45;9.07;;;28.40;35.80;;;;;;4280166;33;20155;-72
2021/08/12 08:47:55;;;;;;;14.20;8.32;;;29.30;34.20;;;;;;4275460;33;20064;-73
2021/08/12 08:50:25;;;;;;;18.02;9.07;;;29.30;33.10;;;;;;4288481;33;20103;-72
2021/08/12 08:52:51;;;;;;;17.00;9.15;;;29.30;35.00;;;;;;4264953;33;20078;-74
2021/08/12 08:55:23;;;;;;;16.15;8.88;;;29.40;34.30;;;;;;4276226;33;20067;-72
2021/08/12 08:57:54;;;;;;;15.80;9.10;;;29.90;32.90;;;;;;4273312;33;20096;-70
2021/08/12 09:00:21;;;;;;;19.90;9.85;;;30.20;32.10;;;;;;4276186;33;20538;-70
2021/08/12 09:02:48;;;;;;;20.52;9.30;;;29.50;33.80;;;;;;4289996;33;20103;-72
2021/08/12 09:05:14;;;;;;;17.73;10.00;;;30.10;32.20;;;;;;4289603;33;20102;-70
2021/08/12 09:07:44;;;;;;;16.45;8.90;;;30.10;32.70;;;;;;4278492;33;20078;-71
2021/08/12 09:10:14;;;;;;;20.95;9.25;;;29.40;33.20;;;;;;4289883;33;20071;-71
2021/08/12 09:12:48;;;;;;;20.25;9.90;;;28.30;34.20;;;;;;4279867;33;20067;-68
2021/08/12 09:15:21;;;;;;;17.73;8.82;;;28.50;35.20;;;;;;4297830;33;20492;-66
2021/08/12 09:17:49;;;;;;;18.73;9.75;;;28.20;35.30;;;;;;4264455;33;20104;-66
2021/08/12 09:20:23;;;;;;;18.37;9.75;;;28.30;35.40;;;;;;4296042;33;20076;-70
2021/08/12 09:23:07;;;;;;;20.52;9.85;;;28.90;34.60;;;;;;4257579;33;20086;-65
2021/08/12 09:25:43;;;;;;;18.23;9.32;;;29.80;32.80;;;;;;4287154;33;20520;-69
2021/08/12 09:28:19;;;;;;;21.33;9.85;;;29.80;32.20;;;;;;4305102;33;20117;-68
2021/08/12 09:31:00;;;;;;;;;;;29.10;34.40;;;;;;4306275;33;20088;-68
2021/08/12 09:33:35;;;;;;;21.62;9.63;;;29.30;33.90;;;;;;4301789;33;19963;-69
2021/08/12 09:36:01;;;;;;;18.73;8.98;;;29.00;33.90;;;;;;4280785;33;20446;-66
2021/08/12 09:38:28;;;;;;;19.20;9.32;;;28.70;34.50;;;;;;4301600;33;20068;-68
2021/08/12 09:40:59;;;;;;;19.58;9.88;;;29.10;34.70;;;;;;4277278;33;20087;-68
2021/08/12 09:43:36;;;;;;;15.88;9.35;;;29.20;33.90;;;;;;4302058;33;20072;-69
2021/08/12 09:46:08;;;;;;;16.67;8.80;;;29.30;33.50;;;;;;4277759;33;20063;-68
2021/08/12 09:48:34;;;;;;;18.70;9.57;;;29.90;33.10;;;;;;4279426;33;20068;-67
2021/08/12 09:51:05;;;;;;;20.50;9.57;;;30.50;31.70;;;;;;4271180;33;20511;-68
2021/08/12 09:53:31;;;;;;;17.62;9.63;;;30.50;31.30;;;;;;4271414;33;20079;-72
2021/08/12 09:56:11;;;;;;;17.85;10.60;;;30.60;30.90;;;;;;4289491;33;20164;-69
2021/08/12 09:58:38;;;;;;;19.60;8.88;;;29.90;32.00;;;;;;4277760;33;20174;-66
2021/08/12 10:01:18;;;;;;;19.05;9.95;;;29.10;32.50;;;;;;4274619;33;20068;-69
2021/08/12 10:03:45;;;;;;;23.70;10.35;;;30.10;32.70;;;;;;4266418;33;20531;-72
2021/08/12 10:06:22;;;;;;;19.62;10.50;;;30.90;30.80;;;;;;4255994;33;20071;-72
2021/08/12 10:08:49;;;;;;;19.35;9.65;;;30.10;31.10;;;;;;4285384;33;20068;-67
2021/08/12 10:11:30;;;;;;;18.65;9.48;;;30.90;31.10;;;;;;4277237;33;20060;-70
2021/08/12 10:14:01;;;;;;;17.52;9.30;;;31.10;29.70;;;;;;4289204;33;20722;-70
2021/08/12 10:16:30;;;;;;;20.98;9.60;;;30.50;29.60;;;;;;4289827;33;20162;-72
2021/08/12 10:18:57;;;;;;;18.95;9.57;;;30.50;30.10;;;;;;4264040;33;20076;-71
2021/08/12 10:21:24;;;;;;;19.33;9.20;;;31.20;29.40;;;;;;4288487;33;20182;-72
2021/08/12 10:23:54;;;;;;;16.08;9.98;;;31.20;28.90;;;;;;4288781;33;20118;-71
2021/08/12 10:26:24;;;;;;;15.98;8.90;;;30.70;29.30;;;;;;4288703;33;20128;-67
2021/08/12 10:28:54;;;;;;;21.23;10.43;;;30.10;29.50;;;;;;4272109;33;20080;-68
2021/08/12 10:31:25;;;;;;;18.85;10.00;;;29.80;30.50;;;;;;4277550;33;20071;-70
2021/08/12 10:33:52;;;;;;;20.33;9.45;;;30.30;31.30;;;;;;4290813;33;20115;-70
2021/08/12 10:36:18;;;;;;;20.35;10.82;;;31.20;29.00;;;;;;4291931;33;20086;-71
2021/08/12 10:38:45;;;;;;;23.12;10.57;;;30.80;29.60;;;;;;4278633;33;20068;-72
2021/08/12 10:41:11;;;;;;;19.70;10.65;;;31.10;28.90;;;;;;4275607;33;20682;-71
2021/08/12 10:43:37;;;;;;;19.98;10.77;;;30.80;28.70;;;;;;4266587;33;20091;-72
2021/08/12 10:46:04;;;;;;;23.67;10.55;;;31.10;28.80;;;;;;4277254;33;20075;-70
2021/08/12 10:48:32;;;;;;;19.10;9.55;;;30.20;29.70;;;;;;4287627;33;20083;-69
2021/08/12 10:51:12;;;;;;;20.67;9.80;;;30.70;29.70;;;;;;4290516;33;20099;-72
2021/08/12 10:54:17;;;;;;;21.67;9.70;;;31.20;29.10;;;;;;4276929;33;20076;-72
2021/08/12 10:56:43;;;;;;;18.48;9.25;;;30.40;29.30;;;;;;4289157;33;20115;-67
2021/08/12 10:59:10;;;;;;;17.17;10.10;;;30.30;29.60;;;;;;4274493;33;20115;-69
2021/08/12 11:01:38;;;;;;;18.65;9.65;;;30.60;29.50;;;;;;4287540;33;20491;-69
2021/08/12 11:04:05;;;;;;;19.00;9.93;;;30.80;28.70;;;;;;4265312;33;20107;-71
2021/08/12 11:06:50;;;;;;;19.73;10.60;;;30.70;29.40;;;;;;4276497;33;20488;-68
2021/08/12 11:09:16;;;;;;;19.67;10.05;;;31.70;28.10;;;;;;4265509;33;20138;-69
2021/08/12 11:11:42;;;;;;;20.60;10.23;;;31.40;28.60;;;;;;4278339;33;20135;-69
2021/08/12 11:14:10;;;;;;;17.60;10.45;;;32.20;27.60;;;;;;4308044;33;20095;-69
2021/08/12 11:16:45;;;;;;;22.85;9.95;;;32.60;26.80;;;;;;4289803;33;20540;-70
2021/08/12 11:19:28;;;;;;;18.98;9.95;;;31.50;27.50;;;;;;4300519;33;20095;-67
2021/08/12 11:21:54;;;;;;;22.25;10.32;;;31.50;28.30;;;;;;4301532;33;20158;-65
2021/08/12 11:24:23;;;;;;;21.45;10.07;;;31.00;28.90;;;;;;4253707;33;20076;-64
2021/08/12 11:26:50;;;;;;;17.23;9.35;;;31.40;28.30;;;;;;4274825;33;20076;-65
2021/08/12 11:29:27;;;;;;;18.62;9.90;;;31.00;28.50;;;;;;4273562;33;20144;-66
2021/08/12 11:32:05;;;;;;;18.77;10.55;;;31.70;28.30;;;;;;4298801;33;20106;-65
2021/08/12 11:34:52;;;;;;;17.83;9.43;;;32.10;27.40;;;;;;4297469;33;20581;-63
2021/08/12 11:37:39;;;;;;;21.35;10.95;;;32.60;26.90;;;;;;4287991;33;20087;-67
2021/08/12 11:40:12;;;;;;;17.80;9.52;;;32.00;27.70;;;;;;4299268;33;20169;-65
2021/08/12 11:42:40;;;;;;;19.80;10.15;;;31.70;27.50;;;;;;4289036;33;20087;-64
2021/08/12 11:45:09;;;;;;;20.25;10.07;;;31.50;27.80;;;;;;4265396;33;20082;-65
2021/08/12 11:47:40;;;;;;;17.73;10.00;;;32.30;27.40;;;;;;4264337;33;20743;-66
2021/08/12 11:50:12;;;;;;;22.02;10.73;;;32.60;26.80;;;;;;4257081;33;20110;-68
2021/08/12 11:52:45;;;;;;;19.12;9.38;;;32.40;26.70;;;;;;4275865;33;20071;-67
2021/08/12 11:55:13;;;;;;;18.77;10.35;;;31.60;27.60;;;;;;4290092;33;20165;-64
2021/08/12 11:57:56;;;;;;;20.30;11.10;;;31.90;27.60;;;;;;4254138;33;20458;-64
2021/08/12 12:00:31;;;;;;;19.60;10.30;;;32.60;26.70;;;;;;4276899;33;20083;-65
2021/08/12 12:02:59;;;;;;;16.98;10.20;;;32.90;26.10;;;;;;4277190;33;20151;-66
2021/08/12 12:05:36;;;;;;;17.55;10.00;;;32.20;26.70;;;;;;4253146;33;20503;-66
2021/08/12 12:08:09;;;;;;;22.70;9.82;;;32.10;27.20;;;;;;4253336;33;20572;-64
2021/08/12 12:10:44;;;;;;;19.73;10.35;;;32.50;27.20;;;;;;4288967;33;20095;-64
2021/08/12 12:13:18;;;;;;;21.55;10.57;;;31.90;27.20;;;;;;4249660;33;20550;-65
2021/08/12 12:15:45;;;;;;;16.67;10.25;;;32.20;27.00;;;;;;4273536;33;20561;-65
2021/08/12 12:18:13;;;;;;;17.83;10.13;;;31.80;27.20;;;;;;4272194;33;20095;-69
2021/08/12 12:20:40;;;;;;;19.77;10.88;;;32.30;26.90;;;;;;4287150;33;20111;-69
2021/08/12 12:23:16;;;;;;;18.08;10.38;;;31.70;27.30;;;;;;4265376;33;20103;-70
2021/08/12 12:25:43;;;;;;;19.40;9.50;;;32.10;27.00;;;;;;4263977;33;20517;-70
2021/08/12 12:28:12;;;;;;;18.12;9.80;;;32.00;27.10;;;;;;4287121;33;20084;-71
2021/08/12 12:30:38;;;;;;;18.45;10.10;;;32.40;26.60;;;;;;4264529;33;20071;-72
2021/08/12 12:33:10;;;;;;;19.17;10.73;;;31.70;27.10;;;;;;4299452;33;20091;-71
2021/08/12 12:35:46;;;;;;;16.92;9.93;;;32.00;27.00;;;;;;4289303;33;20095;-71
2021/08/12 12:38:35;;;;;;;18.33;9.45;;;32.20;26.90;;;;;;4290090;33;20075;-69
2021/08/12 12:41:09;;;;;;;17.12;9.52;;;32.50;26.60;;;;;;4293111;33;20091;-69